Davenport, Virginia
Current Conditions -  °F | °C
As of 3:35 AM on Saturday 29 Nov 2014 (Local Time) from KJFZ Reporting Station
Clear Clear  
Wind Chill: 27°   Ceiling: Unl
Heat Index: 31°   Visibility: 10mi
Dew Point: 18°   Wind: 5mph
Humidity: 57%   Direction: 280°W
Pressure: 30.14"   Gusts: NA
Location:  37.1°N, 82.14°W
Report Text: KJFZ 290835Z AUTO 28004KT 10SM CLR 00/M08 A3014 RMK AO2 T10031078
Loading
Personal Weather Stations






























Interactive Weather Map New forecast layout! Learn more

10-Day Weather Forecast

Advertisements
Track Severe Weather on mobile